createdAt,value
2019-01-21T00:00:01.067Z,10.93
2019-01-21T00:02:28.550Z,11.13
2019-01-21T00:04:56.154Z,12.07
2019-01-21T00:07:23.538Z,11.10
2019-01-21T00:09:50.928Z,9.60
2019-01-21T00:12:18.534Z,10.93
2019-01-21T00:14:45.936Z,9.97
2019-01-21T00:17:13.325Z,9.13
2019-01-21T00:19:40.800Z,8.43
2019-01-21T00:22:08.198Z,10.73
2019-01-21T00:24:35.616Z,9.60
2019-01-21T00:27:03.420Z,11.33
2019-01-21T00:29:30.838Z,11.70
2019-01-21T00:31:58.224Z,11.03
2019-01-21T00:34:25.809Z,16.57
2019-01-21T00:36:53.192Z,19.20
2019-01-21T00:39:20.573Z,16.83
2019-01-21T00:41:48.037Z,14.33
2019-01-21T00:44:15.427Z,12.23
2019-01-21T00:46:42.837Z,10.50
2019-01-21T00:49:10.570Z,14.00
2019-01-21T00:51:37.956Z,9.50
2019-01-21T00:54:05.717Z,13.80
2019-01-21T00:56:33.573Z,13.40
2019-01-21T00:59:00.972Z,8.63
2019-01-21T01:01:28.341Z,14.50
2019-01-21T01:03:55.958Z,9.83
2019-01-21T01:06:23.362Z,13.57
2019-01-21T01:08:50.738Z,12.73
2019-01-21T01:11:18.459Z,10.80
2019-01-21T01:13:45.840Z,8.90
2019-01-21T01:16:13.229Z,9.03
2019-01-21T01:18:40.833Z,10.87
2019-01-21T01:21:08.219Z,10.17
2019-01-21T01:23:35.599Z,8.37
2019-01-21T01:26:03.133Z,11.43
2019-01-21T01:28:30.541Z,11.40
2019-01-21T01:30:57.930Z,12.20
2019-01-21T01:33:25.365Z,12.47
2019-01-21T01:35:52.762Z,10.77
2019-01-21T01:38:20.150Z,15.40
2019-01-21T01:40:47.770Z,12.43
2019-01-21T01:43:15.160Z,9.00
2019-01-21T01:45:42.546Z,9.33
2019-01-21T01:48:10.070Z,8.70
2019-01-21T01:50:37.460Z,9.63
2019-01-21T01:53:05.114Z,11.17
2019-01-21T01:55:33.884Z,7.70
2019-01-21T01:58:03.211Z,11.00
2019-01-21T02:00:30.605Z,8.07
2019-01-21T02:02:58.458Z,8.67
2019-01-21T02:05:25.838Z,9.10
2019-01-21T02:07:53.218Z,7.63
2019-01-21T02:10:20.924Z,8.50
2019-01-21T02:12:48.605Z,9.50
2019-01-21T02:15:16.214Z,11.80
2019-01-21T02:17:43.818Z,13.47
2019-01-21T02:20:12.013Z,12.10
2019-01-21T02:22:42.743Z,10.30
2019-01-21T02:25:10.787Z,12.73
2019-01-21T02:28:05.068Z,13.43
2019-01-21T02:31:14.493Z,9.47
2019-01-21T02:34:08.492Z,12.60
2019-01-21T02:36:59.374Z,10.87
2019-01-21T02:39:59.582Z,11.00
2019-01-21T02:42:52.576Z,12.13
2019-01-21T02:45:59.838Z,13.10
2019-01-21T02:49:12.390Z,12.63
2019-01-21T02:52:16.797Z,14.07
2019-01-21T02:54:59.501Z,12.63
2019-01-21T02:58:12.408Z,12.73
2019-01-21T03:01:33.821Z,15.77
2019-01-21T03:04:30.732Z,10.60
2019-01-21T03:07:16.168Z,11.23
2019-01-21T03:09:53.597Z,15.90
2019-01-21T03:13:01.819Z,13.53
2019-01-21T03:16:03.336Z,15.00
2019-01-21T03:19:04.027Z,9.60
2019-01-21T03:22:44.077Z,9.80
2019-01-21T03:25:33.623Z,17.47
2019-01-21T03:28:47.947Z,16.33
2019-01-21T03:32:12.414Z,16.07
2019-01-21T03:35:22.652Z,14.13
2019-01-21T03:38:34.110Z,12.30
2019-01-21T03:41:23.975Z,15.70
2019-01-21T03:44:21.019Z,11.50
2019-01-21T03:47:31.288Z,9.60
2019-01-21T03:50:55.932Z,11.03
2019-01-21T03:54:14.259Z,8.93
2019-01-21T03:57:26.336Z,12.10
2019-01-21T04:00:22.263Z,10.70
2019-01-21T04:03:34.741Z,11.40
2019-01-21T04:06:10.494Z,11.10
2019-01-21T04:09:04.268Z,15.17
2019-01-21T04:11:50.353Z,12.73
2019-01-21T04:15:27.109Z,12.07
2019-01-21T04:18:30.061Z,14.00
2019-01-21T04:21:28.463Z,15.57
2019-01-21T04:24:47.379Z,15.40
2019-01-21T04:27:37.958Z,14.80
2019-01-21T04:30:50.175Z,17.13
2019-01-21T04:33:52.069Z,13.20
2019-01-21T04:37:02.225Z,10.77
2019-01-21T04:40:02.107Z,12.63
2019-01-21T04:43:03.141Z,18.43
2019-01-21T04:46:08.358Z,11.93
2019-01-21T04:49:12.046Z,13.30
2019-01-21T04:52:18.470Z,16.57
2019-01-21T04:55:17.678Z,15.47
2019-01-21T04:58:25.366Z,18.93
2019-01-21T05:01:37.130Z,12.87
2019-01-21T05:04:30.888Z,14.03
2019-01-21T05:07:45.072Z,13.80
2019-01-21T05:10:52.735Z,16.13
2019-01-21T05:14:14.310Z,15.70
2019-01-21T05:16:53.206Z,10.73
2019-01-21T05:19:48.515Z,11.07
2019-01-21T05:22:57.501Z,14.60
2019-01-21T05:25:42.725Z,12.90
2019-01-21T05:29:00.006Z,16.90
2019-01-21T05:32:04.062Z,11.23
2019-01-21T05:34:51.704Z,12.87
2019-01-21T05:37:38.731Z,15.33
2019-01-21T05:41:03.456Z,17.43
2019-01-21T05:44:30.813Z,14.80
2019-01-21T05:47:54.026Z,19.57
2019-01-21T05:51:02.075Z,18.27
2019-01-21T05:54:12.998Z,14.97
2019-01-21T05:56:53.806Z,18.73
2019-01-21T06:00:02.891Z,23.60
2019-01-21T06:02:52.864Z,19.53
2019-01-21T06:06:08.677Z,16.90
2019-01-21T06:09:17.782Z,16.63
2019-01-21T06:12:32.687Z,15.37
2019-01-21T06:15:34.518Z,13.80
2019-01-21T06:18:34.018Z,20.10
2019-01-21T06:21:55.162Z,17.90
2019-01-21T06:24:57.909Z,16.77
2019-01-21T06:27:49.965Z,17.77
2019-01-21T06:30:42.813Z,19.70
2019-01-21T06:33:37.520Z,17.67
2019-01-21T06:36:24.367Z,17.90
2019-01-21T06:39:48.870Z,15.93
2019-01-21T06:42:52.702Z,17.83
2019-01-21T06:46:16.018Z,15.50
2019-01-21T06:49:20.515Z,17.17
2019-01-21T06:52:28.042Z,21.93
2019-01-21T06:55:40.259Z,20.97
2019-01-21T06:58:57.583Z,19.10
2019-01-21T07:01:39.517Z,15.53
2019-01-21T07:04:45.392Z,13.77
2019-01-21T07:07:42.375Z,16.00
2019-01-21T07:10:37.952Z,14.13
2019-01-21T07:13:42.853Z,19.53
2019-01-21T07:16:34.584Z,15.93
2019-01-21T07:19:27.397Z,16.07
2019-01-21T07:22:54.667Z,14.63
2019-01-21T07:25:41.818Z,16.63
2019-01-21T07:28:20.376Z,21.20
2019-01-21T07:31:21.126Z,13.70
2019-01-21T07:34:36.297Z,21.77
2019-01-21T07:37:16.219Z,16.80
2019-01-21T07:40:31.325Z,20.47
2019-01-21T07:43:29.206Z,17.47
2019-01-21T07:46:24.598Z,18.47
2019-01-21T07:49:29.082Z,21.63
2019-01-21T07:52:40.242Z,19.83
2019-01-21T07:55:32.013Z,16.60
2019-01-21T07:58:38.842Z,14.93
2019-01-21T08:01:19.222Z,21.37
2019-01-21T08:04:40.128Z,24.10
2019-01-21T08:07:17.138Z,21.63
2019-01-21T08:10:47.373Z,18.03
2019-01-21T08:13:32.141Z,14.60
2019-01-21T08:16:47.572Z,19.10
2019-01-21T08:19:59.814Z,23.93
2019-01-21T08:23:21.342Z,25.00
2019-01-21T08:26:35.914Z,23.47
2019-01-21T08:29:45.580Z,17.57
2019-01-21T08:33:00.123Z,20.83
2019-01-21T08:35:43.778Z,20.50
2019-01-21T08:38:24.099Z,19.80
2019-01-21T08:41:33.526Z,16.97
2019-01-21T08:44:38.751Z,19.20
2019-01-21T08:47:43.910Z,22.50
2019-01-21T08:50:37.637Z,23.67
2019-01-21T08:53:34.218Z,21.90
2019-01-21T08:56:52.554Z,33.63
2019-01-21T08:59:27.631Z,23.53
2019-01-21T09:02:43.584Z,26.33
2019-01-21T09:05:42.536Z,23.90
2019-01-21T09:08:37.454Z,26.60
2019-01-21T09:11:47.114Z,32.40
2019-01-21T09:14:53.827Z,25.70
2019-01-21T09:18:05.007Z,27.40
2019-01-21T09:21:05.920Z,31.97
2019-01-21T09:24:19.582Z,44.53
2019-01-21T09:27:34.891Z,34.97
2019-01-21T09:30:50.336Z,37.10
2019-01-21T09:33:52.487Z,26.67
2019-01-21T09:36:46.982Z,24.27
2019-01-21T09:39:59.055Z,20.40
2019-01-21T09:43:08.235Z,18.60
2019-01-21T09:46:18.203Z,18.53
2019-01-21T09:48:44.609Z,25.70
2019-01-21T09:51:13.501Z,21.20
2019-01-21T09:53:45.119Z,24.33
2019-01-21T09:56:12.966Z,25.07
2019-01-21T09:58:43.091Z,19.33
2019-01-21T10:01:10.527Z,25.07
2019-01-21T10:03:38.411Z,27.90
2019-01-21T10:06:08.037Z,18.90
2019-01-21T10:08:47.873Z,22.53
2019-01-21T10:11:47.220Z,17.90
2019-01-21T10:14:55.719Z,18.90
2019-01-21T10:18:04.969Z,16.63
2019-01-21T10:20:50.293Z,22.90
2019-01-21T10:24:02.762Z,24.43
2019-01-21T10:27:05.783Z,20.03
2019-01-21T10:29:49.043Z,19.10
2019-01-21T10:33:02.322Z,21.63
2019-01-21T10:35:57.525Z,26.40
2019-01-21T10:39:01.509Z,26.13
2019-01-21T10:41:43.644Z,31.03
2019-01-21T10:44:44.746Z,25.97
2019-01-21T10:47:47.518Z,26.30
2019-01-21T10:50:31.363Z,30.77
2019-01-21T10:53:33.733Z,26.13
2019-01-21T10:56:17.338Z,28.67
2019-01-21T10:59:01.090Z,38.10
2019-01-21T11:01:47.635Z,27.30
2019-01-21T11:04:27.747Z,25.13
2019-01-21T11:07:41.131Z,38.73
2019-01-21T11:10:49.757Z,32.70
2019-01-21T11:13:56.287Z,30.73
2019-01-21T11:16:42.594Z,28.97
2019-01-21T11:20:03.763Z,29.80
2019-01-21T11:22:46.424Z,36.00
2019-01-21T11:25:50.370Z,28.77
2019-01-21T11:28:49.781Z,29.03
2019-01-21T11:31:47.490Z,22.67
2019-01-21T11:34:40.898Z,23.20
2019-01-21T11:37:45.682Z,27.57
2019-01-21T11:40:47.679Z,25.80
2019-01-21T11:44:12.102Z,29.30
2019-01-21T11:47:04.248Z,26.80
2019-01-21T11:49:50.222Z,21.33
2019-01-21T11:52:32.322Z,21.37
2019-01-21T11:55:43.758Z,21.00
2019-01-21T11:58:52.370Z,25.27
2019-01-21T12:02:20.238Z,21.47
2019-01-21T12:05:25.802Z,21.10
2019-01-21T12:08:30.854Z,23.67
2019-01-21T12:11:21.558Z,19.60
2019-01-21T12:14:17.022Z,24.13
2019-01-21T12:17:28.482Z,20.27
2019-01-21T12:20:22.275Z,26.13
2019-01-21T12:23:03.989Z,20.40
2019-01-21T12:25:51.118Z,22.70
2019-01-21T12:28:41.459Z,24.77
2019-01-21T12:31:53.842Z,22.93
2019-01-21T12:34:47.598Z,28.10
2019-01-21T12:37:39.114Z,26.33
2019-01-21T12:40:18.258Z,24.63
2019-01-21T12:43:20.776Z,23.27
2019-01-21T12:46:31.704Z,24.20
2019-01-21T12:49:40.353Z,25.80
2019-01-21T12:52:35.688Z,25.67
2019-01-21T12:55:28.781Z,26.13
2019-01-21T12:58:37.322Z,21.00
2019-01-21T13:01:45.218Z,22.63
2019-01-21T13:04:34.881Z,22.73
2019-01-21T13:07:39.328Z,23.17
2019-01-21T13:10:33.210Z,19.87
2019-01-21T13:13:57.166Z,22.17
2019-01-21T13:16:39.716Z,19.67
2019-01-21T13:19:46.184Z,20.73
2019-01-21T13:22:51.640Z,23.37
2019-01-21T13:26:08.925Z,21.50
2019-01-21T13:28:57.730Z,22.23
2019-01-21T13:31:56.589Z,21.63
2019-01-21T13:34:53.782Z,23.50
2019-01-21T13:37:56.795Z,24.97
2019-01-21T13:40:59.541Z,22.03
2019-01-21T13:43:39.928Z,40.80
2019-01-21T13:46:20.916Z,41.40
2019-01-21T13:49:12.299Z,46.63
2019-01-21T13:52:09.667Z,39.30
2019-01-21T13:55:18.126Z,35.47
2019-01-21T13:58:27.366Z,30.43
2019-01-21T14:01:01.697Z,26.00
2019-01-21T14:03:46.352Z,29.90
2019-01-21T14:06:44.401Z,25.70
2019-01-21T14:09:36.450Z,26.10
2019-01-21T14:12:54.982Z,28.50
2019-01-21T14:15:49.654Z,26.70
2019-01-21T14:19:05.251Z,32.13
2019-01-21T14:22:14.245Z,28.17
2019-01-21T14:24:54.398Z,32.57
2019-01-21T14:27:50.480Z,31.80
2019-01-21T14:30:54.766Z,28.33
2019-01-21T14:34:06.401Z,29.80
2019-01-21T14:37:04.693Z,19.93
2019-01-21T14:39:49.162Z,22.80
2019-01-21T14:42:57.564Z,26.73
2019-01-21T14:46:34.322Z,17.83
2019-01-21T14:50:11.255Z,26.50
2019-01-21T14:53:26.551Z,26.13
2019-01-21T14:56:29.047Z,24.67
2019-01-21T14:59:41.443Z,31.47
2019-01-21T15:02:42.061Z,29.90
2019-01-21T15:05:47.117Z,26.13
2019-01-21T15:08:27.120Z,23.63
2019-01-21T15:12:00.862Z,22.90
2019-01-21T15:15:12.175Z,25.77
2019-01-21T15:18:20.818Z,27.13
2019-01-21T15:21:05.938Z,19.47
2019-01-21T15:23:57.730Z,23.00
2019-01-21T15:26:32.933Z,21.00
2019-01-21T15:29:40.993Z,20.70
2019-01-21T15:33:01.246Z,25.20
2019-01-21T15:35:54.980Z,26.43
2019-01-21T15:39:10.359Z,22.97
2019-01-21T15:42:22.857Z,20.97
2019-01-21T15:45:23.761Z,24.03
2019-01-21T15:48:03.926Z,26.00
2019-01-21T15:51:05.187Z,29.93
2019-01-21T15:53:58.824Z,30.40
2019-01-21T15:57:04.442Z,26.03
2019-01-21T16:00:18.162Z,22.93
2019-01-21T16:03:13.403Z,29.10
2019-01-21T16:06:08.256Z,27.37
2019-01-21T16:08:49.994Z,24.67
2019-01-21T16:11:44.435Z,27.23
2019-01-21T16:14:38.640Z,27.30
2019-01-21T16:17:36.762Z,29.77
2019-01-21T16:20:21.592Z,51.13
2019-01-21T16:23:39.714Z,37.90
2019-01-21T16:26:24.890Z,22.60
2019-01-21T16:29:16.386Z,28.97
2019-01-21T16:32:01.140Z,32.03
2019-01-21T16:35:31.945Z,25.90
2019-01-21T16:38:27.498Z,22.77
2019-01-21T16:41:36.789Z,23.37
2019-01-21T16:44:04.252Z,24.13
2019-01-21T16:46:31.650Z,28.53
2019-01-21T16:48:59.042Z,23.50
2019-01-21T16:51:26.474Z,32.93
2019-01-21T16:53:53.894Z,23.77
2019-01-21T16:56:21.306Z,28.60
2019-01-21T16:58:48.772Z,35.53
2019-01-21T17:01:16.378Z,27.43
2019-01-21T17:03:44.118Z,33.30
2019-01-21T17:06:11.699Z,31.03
2019-01-21T17:08:39.098Z,31.17
2019-01-21T17:11:06.506Z,25.73
2019-01-21T17:13:34.070Z,28.90
2019-01-21T17:16:01.468Z,32.70
2019-01-21T17:18:28.868Z,30.40
2019-01-21T17:20:56.294Z,37.83
2019-01-21T17:23:23.702Z,59.17
2019-01-21T17:25:51.102Z,55.43
2019-01-21T17:28:18.655Z,57.33
2019-01-21T17:30:46.062Z,54.03
2019-01-21T17:33:13.475Z,45.33
2019-01-21T17:35:41.040Z,33.10
2019-01-21T17:38:08.442Z,26.93
2019-01-21T17:40:35.832Z,25.60
2019-01-21T17:43:03.934Z,25.23
2019-01-21T17:45:31.336Z,35.80
2019-01-21T17:47:58.735Z,43.40
2019-01-21T17:50:26.204Z,29.30
2019-01-21T17:52:53.625Z,26.73
2019-01-21T17:55:21.034Z,29.37
2019-01-21T17:57:48.717Z,34.80
2019-01-21T18:00:20.974Z,33.53
2019-01-21T18:02:48.496Z,34.57
2019-01-21T18:05:16.643Z,28.43
2019-01-21T18:07:44.062Z,29.77
2019-01-21T18:10:12.903Z,30.97
2019-01-21T18:12:40.348Z,25.37
2019-01-21T18:15:09.802Z,36.33
2019-01-21T18:17:37.207Z,29.33
2019-01-21T18:20:07.798Z,31.60
2019-01-21T18:22:35.191Z,26.20
2019-01-21T18:25:03.101Z,31.23
2019-01-21T18:27:30.843Z,27.00
2019-01-21T18:29:58.246Z,27.87
2019-01-21T18:32:26.771Z,26.60
2019-01-21T18:34:54.568Z,22.23
2019-01-21T18:37:21.954Z,26.30
2019-01-21T18:39:52.477Z,26.83
2019-01-21T18:42:19.927Z,35.50
2019-01-21T18:44:47.328Z,33.00
2019-01-21T18:47:14.715Z,28.37
2019-01-21T18:49:42.303Z,28.10
2019-01-21T18:52:09.704Z,37.40
2019-01-21T18:54:37.098Z,28.30
2019-01-21T18:57:04.693Z,33.37
2019-01-21T18:59:32.470Z,37.10
2019-01-21T19:02:00.075Z,31.57
2019-01-21T19:04:27.703Z,26.50
2019-01-21T19:06:55.090Z,37.00
2019-01-21T19:09:22.485Z,30.47
2019-01-21T19:11:49.934Z,35.60
2019-01-21T19:14:17.344Z,30.60
2019-01-21T19:16:44.768Z,37.53
2019-01-21T19:19:13.114Z,39.20
2019-01-21T19:21:40.553Z,34.63
2019-01-21T19:24:07.918Z,37.97
2019-01-21T19:26:35.350Z,35.53
2019-01-21T19:29:02.794Z,40.87
2019-01-21T19:31:30.261Z,34.70
2019-01-21T19:33:57.706Z,32.27
2019-01-21T19:36:25.018Z,28.90
2019-01-21T19:38:54.314Z,27.73
2019-01-21T19:41:22.058Z,26.70
2019-01-21T19:43:49.692Z,30.30
2019-01-21T19:46:17.200Z,37.40
2019-01-21T19:48:44.653Z,37.20
2019-01-21T19:51:12.126Z,39.10
2019-01-21T19:53:39.578Z,41.40
2019-01-21T19:56:07.042Z,39.30
2019-01-21T19:58:34.556Z,36.40
2019-01-21T20:01:02.304Z,45.37
2019-01-21T20:03:30.370Z,39.77
2019-01-21T20:05:57.965Z,43.50
2019-01-21T20:08:26.400Z,45.77
2019-01-21T20:10:54.290Z,42.67
2019-01-21T20:13:21.740Z,37.93
2019-01-21T20:15:49.243Z,38.37
2019-01-21T20:18:16.708Z,33.37
2019-01-21T20:20:44.125Z,34.57
2019-01-21T20:23:11.869Z,42.00
2019-01-21T20:25:39.365Z,39.53
2019-01-21T20:28:06.978Z,43.70
2019-01-21T20:30:34.444Z,34.17
2019-01-21T20:33:01.900Z,33.67
2019-01-21T20:35:29.455Z,33.17
2019-01-21T20:37:56.927Z,44.07
2019-01-21T20:40:25.600Z,43.10
2019-01-21T20:42:53.127Z,46.80
2019-01-21T20:45:21.449Z,53.33
2019-01-21T20:47:48.929Z,36.30
2019-01-21T20:50:19.132Z,33.50
2019-01-21T20:52:46.545Z,31.60
2019-01-21T20:55:14.813Z,44.80
2019-01-21T20:57:42.201Z,62.30
2019-01-21T21:00:13.134Z,41.60
2019-01-21T21:02:40.887Z,36.03
2019-01-21T21:05:08.685Z,38.70
2019-01-21T21:07:36.125Z,43.63
2019-01-21T21:10:05.122Z,30.97
2019-01-21T21:12:32.504Z,32.03
2019-01-21T21:14:59.950Z,30.93
2019-01-21T21:17:27.426Z,40.50
2019-01-21T21:19:54.821Z,39.03
2019-01-21T21:22:22.288Z,44.10
2019-01-21T21:24:49.739Z,32.13
2019-01-21T21:27:17.243Z,35.60
2019-01-21T21:29:44.689Z,33.97
2019-01-21T21:32:12.158Z,42.73
2019-01-21T21:34:39.557Z,42.60
2019-01-21T21:37:07.064Z,49.23
2019-01-21T21:39:34.542Z,41.07
2019-01-21T21:42:01.939Z,34.47
2019-01-21T21:44:29.630Z,42.03
2019-01-21T21:46:57.117Z,47.17
2019-01-21T21:49:24.756Z,31.97
2019-01-21T21:51:52.306Z,37.47
2019-01-21T21:54:19.756Z,33.80
2019-01-21T21:56:47.154Z,32.97
2019-01-21T21:59:14.845Z,35.00
2019-01-21T22:01:42.288Z,48.00
2019-01-21T22:04:10.062Z,42.07
2019-01-21T22:06:37.506Z,46.83
2019-01-21T22:09:06.234Z,56.97
2019-01-21T22:11:33.605Z,51.07
2019-01-21T22:14:00.991Z,56.17
2019-01-21T22:16:28.449Z,40.07
2019-01-21T22:18:55.835Z,41.57
2019-01-21T22:21:23.248Z,53.33
2019-01-21T22:23:51.484Z,35.17
2019-01-21T22:26:18.877Z,35.60
2019-01-21T22:28:46.296Z,34.67
2019-01-21T22:31:13.958Z,33.80
2019-01-21T22:33:41.384Z,27.50
2019-01-21T22:36:08.785Z,37.63
2019-01-21T22:38:36.207Z,47.47
2019-01-21T22:41:03.601Z,39.77
2019-01-21T22:43:30.998Z,42.47
2019-01-21T22:45:58.538Z,39.10
2019-01-21T22:48:25.950Z,38.67
2019-01-21T22:50:53.357Z,33.50
2019-01-21T22:53:20.812Z,38.40
2019-01-21T22:55:48.202Z,41.63
2019-01-21T22:58:15.611Z,37.23
2019-01-21T23:01:12.560Z,33.00
2019-01-21T23:03:40.258Z,31.40
2019-01-21T23:06:07.749Z,30.80
2019-01-21T23:08:35.682Z,37.17
2019-01-21T23:11:03.282Z,42.03
2019-01-21T23:13:30.678Z,41.10
2019-01-21T23:15:58.374Z,46.73
2019-01-21T23:18:25.768Z,53.50
2019-01-21T23:20:53.259Z,51.00
2019-01-21T23:23:20.715Z,54.50
2019-01-21T23:25:48.124Z,64.27
2019-01-21T23:28:15.522Z,59.97
2019-01-21T23:30:43.143Z,53.63
2019-01-21T23:33:10.541Z,49.07
2019-01-21T23:35:38.144Z,50.13
2019-01-21T23:38:05.581Z,49.83
2019-01-21T23:40:32.975Z,52.50
2019-01-21T23:43:00.378Z,50.47
2019-01-21T23:45:27.918Z,48.10
2019-01-21T23:47:55.312Z,43.90
2019-01-21T23:50:23.117Z,41.13
2019-01-21T23:52:56.021Z,43.73
2019-01-21T23:55:19.758Z,46.80
2019-01-21T23:57:47.154Z,46.10
